Time;durP1;ratioP1;P1;durP2;ratioP2;P2;SDS_P1;SDS_P2;PMS_P1;PMS_P2;Temp;Humidity;BMP_temperature;BMP_pressure;BME280_temperature;BME280_humidity;BME280_pressure;Samples;Min_cycle;Max_cycle;Signal;HPM_P1;HPM_P2
2021/05/01 00:02:24;;;;;;;27.50;23.67;;;;;;;;;;5095708;28;20034;-59
2021/05/01 00:04:51;;;;;;;28.73;22.73;;;;;;;;;;5094375;28;20051;-59
2021/05/01 00:07:20;;;;;;;28.15;23.25;;;;;;;;;;5095147;28;20012;-59
2021/05/01 00:09:47;;;;;;;31.42;23.92;;;;;;;;;;5096173;28;20020;-59
2021/05/01 00:12:13;;;;;;;30.50;23.67;;;;;;;;;;5095990;28;20038;-59
2021/05/01 00:14:42;;;;;;;30.33;24.75;;;;;;;;;;5093864;28;20028;-59
2021/05/01 00:17:13;;;;;;;32.72;23.92;;;;;;;;;;5095467;28;20077;-59
2021/05/01 00:19:39;;;;;;;31.90;25.10;;;;;;;;;;5095154;28;20538;-59
2021/05/01 00:22:11;;;;;;;30.13;24.40;;;;;;;;;;5095554;28;20444;-59
2021/05/01 00:24:37;;;;;;;30.88;23.50;;;;;;;;;;5093974;28;20365;-59
2021/05/01 00:27:03;;;;;;;31.40;23.95;;;;;;;;;;5095288;28;20538;-59
2021/05/01 00:29:29;;;;;;;32.88;26.98;;;;;;;;;;5094517;28;20027;-59
2021/05/01 00:31:58;;;;;;;30.65;25.98;;;;;;;;;;5076768;28;20473;-59
2021/05/01 00:34:24;;;;;;;31.23;25.88;;;;;;;;;;5077583;28;20069;-59
2021/05/01 00:36:53;;;;;;;30.67;24.30;;;;;;;;;;5095004;28;20107;-59
2021/05/01 00:39:19;;;;;;;33.97;26.35;;;;;;;;;;5094017;28;20074;-59
2021/05/01 00:41:48;;;;;;;30.85;26.85;;;;;;;;;;5094966;28;20485;-59
2021/05/01 00:44:14;;;;;;;31.15;26.30;;;;;;;;;;5094482;28;20103;-59
2021/05/01 00:46:46;;;;;;;31.75;25.98;;;;;;;;;;5094573;28;20024;-59
2021/05/01 00:49:17;;;;;;;28.77;23.45;;;;;;;;;;5095335;28;20024;-59
2021/05/01 00:51:43;;;;;;;31.25;24.10;;;;;;;;;;5093023;28;20094;-59
2021/05/01 00:54:10;;;;;;;33.70;27.05;;;;;;;;;;5092792;28;20436;-59
2021/05/01 00:56:36;;;;;;;33.10;27.00;;;;;;;;;;5095066;28;20043;-59
2021/05/01 00:59:08;;;;;;;27.08;24.08;;;;;;;;;;5095537;28;20434;-59
2021/05/01 01:01:52;;;;;;;30.55;23.77;;;;;;;;;;5095101;28;20440;-59
2021/05/01 01:04:24;;;;;;;31.15;26.48;;;;;;;;;;5093273;28;20397;-59
2021/05/01 01:06:53;;;;;;;30.55;24.88;;;;;;;;;;5093253;28;20480;-59
2021/05/01 01:09:19;;;;;;;35.30;24.48;;;;;;;;;;5076151;28;20028;-59
2021/05/01 01:11:48;;;;;;;28.58;24.17;;;;;;;;;;5093118;28;20036;-59
2021/05/01 01:14:18;;;;;;;33.22;24.73;;;;;;;;;;5093163;28;20088;-59
2021/05/01 01:16:45;;;;;;;28.65;24.77;;;;;;;;;;5092704;28;20027;-59
2021/05/01 01:19:12;;;;;;;30.05;24.77;;;;;;;;;;5093088;28;20048;-59
2021/05/01 01:21:42;;;;;;;33.22;25.80;;;;;;;;;;5093034;28;20471;-59
2021/05/01 01:24:09;;;;;;;32.30;27.00;;;;;;;;;;5092611;28;20481;-59
2021/05/01 01:26:41;;;;;;;27.55;23.95;;;;;;;;;;5092734;28;20403;-59
2021/05/01 01:29:08;;;;;;;36.13;27.33;;;;;;;;;;5092633;28;20122;-59
2021/05/01 01:31:34;;;;;;;34.83;25.73;;;;;;;;;;5094979;28;20035;-59
2021/05/01 01:34:01;;;;;;;31.75;25.55;;;;;;;;;;5093022;28;20046;-59
2021/05/01 01:36:30;;;;;;;32.40;25.65;;;;;;;;;;5093723;28;20028;-59
2021/05/01 01:38:56;;;;;;;34.55;26.58;;;;;;;;;;5092394;28;20028;-59
2021/05/01 01:41:31;;;;;;;29.58;25.52;;;;;;;;;;5094342;28;20028;-59
2021/05/01 01:43:57;;;;;;;33.00;25.65;;;;;;;;;;5094044;28;20505;-59
2021/05/01 01:46:27;;;;;;;30.88;25.23;;;;;;;;;;5093493;28;20024;-59
2021/05/01 01:48:54;;;;;;;30.40;25.00;;;;;;;;;;5076054;28;20110;-59
2021/05/01 01:51:20;;;;;;;31.02;25.75;;;;;;;;;;5094237;28;20501;-59
2021/05/01 01:53:54;;;;;;;38.20;28.42;;;;;;;;;;5093728;28;20073;-59
2021/05/01 01:56:20;;;;;;;28.73;25.63;;;;;;;;;;5093709;28;20032;-59
2021/05/01 01:58:58;;;;;;;33.95;26.42;;;;;;;;;;5092059;28;20023;-59
2021/05/01 02:01:24;;;;;;;36.42;25.70;;;;;;;;;;5091815;28;20386;-59
2021/05/01 02:03:53;;;;;;;31.95;27.20;;;;;;;;;;5093505;28;20016;-59
2021/05/01 02:06:22;;;;;;;34.67;25.48;;;;;;;;;;5093070;28;20028;-59
2021/05/01 02:08:48;;;;;;;28.27;24.52;;;;;;;;;;5092397;28;20021;-59
2021/05/01 02:11:19;;;;;;;29.38;23.98;;;;;;;;;;5093587;28;20028;-59
2021/05/01 02:13:46;;;;;;;31.25;25.58;;;;;;;;;;5092184;28;20081;-59
2021/05/01 02:16:12;;;;;;;36.15;27.17;;;;;;;;;;5075008;28;20039;-59
2021/05/01 02:18:46;;;;;;;31.50;25.58;;;;;;;;;;5093378;28;20034;-59
2021/05/01 02:21:13;;;;;;;32.13;26.77;;;;;;;;;;5093614;28;20034;-59
2021/05/01 02:23:39;;;;;;;30.48;27.20;;;;;;;;;;5093322;28;20028;-59
2021/05/01 02:26:05;;;;;;;38.83;28.25;;;;;;;;;;5092149;28;20423;-59
2021/05/01 02:28:35;;;;;;;37.08;26.40;;;;;;;;;;5093698;28;20036;-59
2021/05/01 02:31:01;;;;;;;34.60;28.63;;;;;;;;;;5090798;28;20039;-59
2021/05/01 02:33:30;;;;;;;35.75;26.52;;;;;;;;;;5093132;28;20032;-59
2021/05/01 02:36:07;;;;;;;38.67;29.08;;;;;;;;;;5092323;28;20107;-59
2021/05/01 02:38:33;;;;;;;31.25;27.05;;;;;;;;;;5091869;28;20028;-59
2021/05/01 02:41:05;;;;;;;34.88;24.75;;;;;;;;;;5093677;28;20033;-59
2021/05/01 02:43:37;;;;;;;32.13;25.85;;;;;;;;;;5093676;28;20028;-59
2021/05/01 02:46:06;;;;;;;33.80;28.10;;;;;;;;;;5093606;28;20024;-59
2021/05/01 02:48:35;;;;;;;35.17;27.55;;;;;;;;;;5092284;28;20027;-59
2021/05/01 02:51:01;;;;;;;36.15;27.75;;;;;;;;;;5075253;28;20130;-59
2021/05/01 02:53:28;;;;;;;33.13;25.95;;;;;;;;;;5092648;28;20024;-59
2021/05/01 02:55:57;;;;;;;30.23;26.00;;;;;;;;;;5092648;28;20028;-59
2021/05/01 02:58:30;;;;;;;33.78;26.67;;;;;;;;;;5093438;28;20028;-59
2021/05/01 03:01:01;;;;;;;34.85;28.55;;;;;;;;;;5093490;28;20028;-59
2021/05/01 03:03:33;;;;;;;34.65;27.17;;;;;;;;;;5091210;28;20120;-59
2021/05/01 03:06:04;;;;;;;33.20;25.15;;;;;;;;;;5093371;28;20031;-59
2021/05/01 03:08:31;;;;;;;31.88;26.83;;;;;;;;;;5091862;28;20113;-59
2021/05/01 03:10:57;;;;;;;30.70;27.38;;;;;;;;;;5093104;28;20115;-59
2021/05/01 03:13:30;;;;;;;35.90;26.13;;;;;;;;;;5091275;28;20038;-59
2021/05/01 03:15:56;;;;;;;32.72;25.95;;;;;;;;;;5091914;28;20539;-59
2021/05/01 03:18:25;;;;;;;37.45;28.45;;;;;;;;;;5092960;28;20075;-59
2021/05/01 03:20:54;;;;;;;34.30;27.17;;;;;;;;;;5093069;28;20024;-59
2021/05/01 03:23:27;;;;;;;32.30;26.17;;;;;;;;;;5091017;28;20461;-59
2021/05/01 03:26:01;;;;;;;34.50;27.10;;;;;;;;;;5095401;28;20075;-59
2021/05/01 03:28:31;;;;;;;40.47;30.13;;;;;;;;;;5095056;28;20135;-59
2021/05/01 03:30:57;;;;;;;35.10;29.33;;;;;;;;;;5095548;28;20056;-59
2021/05/01 03:33:25;;;;;;;34.83;28.25;;;;;;;;;;5096897;28;20278;-59
2021/05/01 03:35:51;;;;;;;36.63;31.98;;;;;;;;;;5096147;28;20020;-59
2021/05/01 03:38:18;;;;;;;34.72;28.80;;;;;;;;;;5096304;28;20077;-59
2021/05/01 03:40:52;;;;;;;35.78;28.17;;;;;;;;;;5096642;28;20099;-59
2021/05/01 03:43:24;;;;;;;35.88;29.63;;;;;;;;;;5094971;28;20482;-59
2021/05/01 03:45:50;;;;;;;40.17;29.83;;;;;;;;;;5096236;28;20085;-59
2021/05/01 03:48:23;;;;;;;37.10;30.38;;;;;;;;;;5095916;28;20111;-59
2021/05/01 03:50:49;;;;;;;44.75;30.40;;;;;;;;;;5097023;28;20024;-59
2021/05/01 03:53:15;;;;;;;33.38;28.40;;;;;;;;;;5096067;28;20473;-59
2021/05/01 03:55:41;;;;;;;41.63;29.67;;;;;;;;;;5096260;28;20047;-59
2021/05/01 03:58:07;;;;;;;39.10;28.83;;;;;;;;;;5095929;28;20036;-59
2021/05/01 04:00:34;;;;;;;35.90;28.45;;;;;;;;;;5094570;28;20036;-59
2021/05/01 04:03:06;;;;;;;35.15;28.98;;;;;;;;;;5096017;28;20058;-59
2021/05/01 04:05:35;;;;;;;35.83;27.58;;;;;;;;;;5077807;28;20135;-59
2021/05/01 04:08:03;;;;;;;38.38;29.65;;;;;;;;;;5095961;28;20054;-59
2021/05/01 04:10:33;;;;;;;43.05;30.67;;;;;;;;;;5094459;28;20024;-59
2021/05/01 04:13:03;;;;;;;37.78;29.63;;;;;;;;;;5092730;28;20044;-59
2021/05/01 04:15:36;;;;;;;40.00;30.98;;;;;;;;;;5094546;28;20032;-59
2021/05/01 04:18:02;;;;;;;39.40;30.88;;;;;;;;;;5094067;28;20028;-59
2021/05/01 04:20:31;;;;;;;36.97;29.65;;;;;;;;;;5077231;28;20467;-59
2021/05/01 04:22:59;;;;;;;40.50;30.70;;;;;;;;;;5093790;28;20058;-59
2021/05/01 04:25:28;;;;;;;38.85;27.67;;;;;;;;;;5093913;28;20024;-59
2021/05/01 04:27:54;;;;;;;40.38;31.58;;;;;;;;;;5094126;28;20025;-59
2021/05/01 04:30:20;;;;;;;44.60;29.95;;;;;;;;;;5095246;28;20020;-59
2021/05/01 04:32:50;;;;;;;36.65;30.52;;;;;;;;;;5094438;28;20462;-59
2021/05/01 04:35:16;;;;;;;36.60;31.70;;;;;;;;;;5077176;28;20055;-59
2021/05/01 04:37:42;;;;;;;39.90;31.80;;;;;;;;;;5094994;28;20035;-59
2021/05/01 04:40:09;;;;;;;40.45;29.73;;;;;;;;;;5094496;28;20023;-59
2021/05/01 04:43:03;;;;;;;35.20;29.15;;;;;;;;;;5094150;28;20111;-59
2021/05/01 04:45:32;;;;;;;39.85;31.27;;;;;;;;;;5093629;28;20028;-59
2021/05/01 04:47:59;;;;;;;38.13;30.38;;;;;;;;;;5093490;28;20035;-59
2021/05/01 04:50:25;;;;;;;39.33;29.48;;;;;;;;;;5095817;28;20121;-59
2021/05/01 04:52:54;;;;;;;39.80;32.13;;;;;;;;;;5093818;28;20063;-59
2021/05/01 04:55:21;;;;;;;40.88;30.83;;;;;;;;;;5093180;28;20127;-59
2021/05/01 04:57:48;;;;;;;44.15;32.30;;;;;;;;;;5093561;28;20024;-59
2021/05/01 05:00:16;;;;;;;44.13;32.90;;;;;;;;;;5095404;28;20065;-59
2021/05/01 05:02:42;;;;;;;37.10;30.77;;;;;;;;;;5094350;28;20036;-59
2021/05/01 05:05:09;;;;;;;38.58;30.98;;;;;;;;;;5093024;28;20089;-59
2021/05/01 05:07:35;;;;;;;36.97;29.58;;;;;;;;;;5095335;28;20030;-59
2021/05/01 05:10:01;;;;;;;35.85;28.98;;;;;;;;;;5095021;28;20120;-59
2021/05/01 05:12:27;;;;;;;40.25;31.25;;;;;;;;;;5092866;28;20067;-59
2021/05/01 05:14:57;;;;;;;36.55;28.88;;;;;;;;;;5094499;28;20024;-59
2021/05/01 05:17:24;;;;;;;34.30;30.40;;;;;;;;;;5094409;28;20031;-59
2021/05/01 05:19:50;;;;;;;40.45;30.77;;;;;;;;;;5095242;28;20020;-59
2021/05/01 05:22:23;;;;;;;36.40;32.25;;;;;;;;;;5094398;28;20028;-59
2021/05/01 05:24:49;;;;;;;39.88;30.33;;;;;;;;;;5093504;28;20115;-59
2021/05/01 05:27:15;;;;;;;47.40;30.98;;;;;;;;;;5094493;28;20023;-59
2021/05/01 05:29:50;;;;;;;33.65;27.10;;;;;;;;;;5093813;28;20043;-59
2021/05/01 05:32:20;;;;;;;35.28;28.73;;;;;;;;;;5094105;28;20063;-59
2021/05/01 05:34:47;;;;;;;39.97;30.77;;;;;;;;;;5093727;28;20132;-59
2021/05/01 05:37:15;;;;;;;35.47;30.55;;;;;;;;;;5094010;28;20027;-59
2021/05/01 05:39:43;;;;;;;36.85;29.95;;;;;;;;;;5093829;28;20032;-59
2021/05/01 05:42:10;;;;;;;35.08;27.75;;;;;;;;;;5093971;28;20119;-59
2021/05/01 05:44:38;;;;;;;35.53;29.08;;;;;;;;;;5075919;28;20111;-59
2021/05/01 05:47:06;;;;;;;39.38;28.77;;;;;;;;;;5091685;28;20020;-59
2021/05/01 05:49:34;;;;;;;34.13;28.05;;;;;;;;;;5091937;28;20122;-61
2021/05/01 05:52:00;;;;;;;38.15;28.05;;;;;;;;;;5093856;28;20024;-59
2021/05/01 05:54:29;;;;;;;38.17;28.38;;;;;;;;;;5069835;28;20466;-59
2021/05/01 05:56:58;;;;;;;33.47;26.80;;;;;;;;;;5093768;28;20027;-59
2021/05/01 05:59:24;;;;;;;31.10;25.55;;;;;;;;;;5093254;28;20031;-59
2021/05/01 06:01:51;;;;;;;36.38;28.80;;;;;;;;;;5093602;28;20047;-59
2021/05/01 06:04:46;;;;;;;33.50;28.17;;;;;;;;;;5075462;28;20039;-59
2021/05/01 06:07:17;;;;;;;35.25;28.15;;;;;;;;;;5080436;28;20070;-59
2021/05/01 06:09:44;;;;;;;34.38;25.80;;;;;;;;;;5093654;28;20111;-59
2021/05/01 06:12:11;;;;;;;32.28;27.15;;;;;;;;;;5092678;28;20032;-59
2021/05/01 06:14:49;;;;;;;34.40;27.58;;;;;;;;;;5092411;28;20028;-59
2021/05/01 06:17:17;;;;;;;38.83;30.10;;;;;;;;;;5092075;28;20069;-59
2021/05/01 06:19:43;;;;;;;34.03;25.60;;;;;;;;;;5093970;28;20036;-59
2021/05/01 06:22:11;;;;;;;35.88;28.20;;;;;;;;;;5093491;28;20077;-59
2021/05/01 06:24:41;;;;;;;32.88;26.05;;;;;;;;;;5092351;28;20043;-59
2021/05/01 06:27:07;;;;;;;39.42;25.92;;;;;;;;;;5091295;28;20028;-59
2021/05/01 06:29:39;;;;;;;34.05;24.95;;;;;;;;;;5092608;28;20111;-59
2021/05/01 06:32:13;;;;;;;29.08;25.13;;;;;;;;;;5093967;28;20051;-59
2021/05/01 06:34:40;;;;;;;30.25;23.17;;;;;;;;;;5093803;28;20020;-59
2021/05/01 06:37:10;;;;;;;33.55;24.45;;;;;;;;;;5093301;28;20020;-59
2021/05/01 06:39:37;;;;;;;28.85;23.35;;;;;;;;;;5092603;28;20042;-59
2021/05/01 06:42:05;;;;;;;27.15;23.33;;;;;;;;;;5093003;28;20069;-59
2021/05/01 06:44:37;;;;;;;27.88;22.85;;;;;;;;;;5093278;28;20028;-59
2021/05/01 06:47:09;;;;;;;26.58;23.17;;;;;;;;;;5093720;28;20036;-59
2021/05/01 06:49:41;;;;;;;28.02;23.95;;;;;;;;;;5093197;28;20029;-59
2021/05/01 06:52:08;;;;;;;30.50;22.98;;;;;;;;;;5092824;28;20036;-59
2021/05/01 06:54:35;;;;;;;28.17;22.77;;;;;;;;;;5092681;28;20561;-59
2021/05/01 06:57:09;;;;;;;27.17;21.65;;;;;;;;;;5093075;28;20082;-59
2021/05/01 06:59:50;;;;;;;26.63;23.88;;;;;;;;;;5094959;28;20024;-59
2021/05/01 07:02:17;;;;;;;29.65;23.95;;;;;;;;;;5097527;28;20114;-59
2021/05/01 07:04:48;;;;;;;34.60;24.63;;;;;;;;;;5096984;28;20404;-59
2021/05/01 07:07:15;;;;;;;27.27;23.77;;;;;;;;;;5078987;28;20024;-59
2021/05/01 07:09:48;;;;;;;31.33;25.77;;;;;;;;;;5095877;28;20047;-59
2021/05/01 07:12:14;;;;;;;31.17;25.50;;;;;;;;;;5095191;28;20031;-59
2021/05/01 07:14:46;;;;;;;30.15;25.27;;;;;;;;;;5095873;28;20032;-59
2021/05/01 07:17:13;;;;;;;32.20;25.77;;;;;;;;;;5079189;28;20381;-59
2021/05/01 07:19:42;;;;;;;31.38;25.55;;;;;;;;;;5079129;28;20454;-59
2021/05/01 07:22:09;;;;;;;30.02;25.42;;;;;;;;;;5096991;28;20028;-59
2021/05/01 07:24:35;;;;;;;28.08;23.92;;;;;;;;;;5095891;28;20024;-59
2021/05/01 07:27:11;;;;;;;33.10;26.15;;;;;;;;;;5096820;28;20035;-59
2021/05/01 07:29:38;;;;;;;26.20;22.67;;;;;;;;;;5095007;28;20038;-59
2021/05/01 07:32:05;;;;;;;31.00;25.42;;;;;;;;;;5096119;28;20028;-59
2021/05/01 07:34:34;;;;;;;33.30;26.65;;;;;;;;;;5095126;28;20114;-59
2021/05/01 07:37:10;;;;;;;36.40;25.60;;;;;;;;;;5097091;28;20123;-59
2021/05/01 07:39:41;;;;;;;36.95;26.35;;;;;;;;;;5096575;28;20024;-59
2021/05/01 07:42:11;;;;;;;39.25;26.52;;;;;;;;;;5095940;28;20078;-59
2021/05/01 07:44:38;;;;;;;33.42;25.85;;;;;;;;;;5095939;28;20470;-59
2021/05/01 07:47:07;;;;;;;30.00;25.10;;;;;;;;;;5096091;28;20024;-59
2021/05/01 07:49:36;;;;;;;32.70;26.88;;;;;;;;;;5094709;28;20016;-59
2021/05/01 07:52:06;;;;;;;35.38;28.50;;;;;;;;;;5096222;28;20028;-59
2021/05/01 07:54:41;;;;;;;31.87;26.07;;;;;;;;;;5094016;28;20044;-60
2021/05/01 07:57:07;;;;;;;33.00;26.42;;;;;;;;;;5079385;28;20061;-59
2021/05/01 07:59:45;;;;;;;35.90;27.23;;;;;;;;;;5094455;28;20469;-59
2021/05/01 08:02:11;;;;;;;28.55;23.35;;;;;;;;;;5095804;28;20035;-59
2021/05/01 08:04:40;;;;;;;25.42;20.85;;;;;;;;;;5095757;28;20020;-60
2021/05/01 08:07:17;;;;;;;31.75;25.08;;;;;;;;;;5095943;28;20024;-60
2021/05/01 08:09:43;;;;;;;34.25;25.15;;;;;;;;;;5095885;28;20035;-60
2021/05/01 08:12:12;;;;;;;33.15;26.80;;;;;;;;;;5092991;28;20055;-59
2021/05/01 08:14:38;;;;;;;27.13;23.73;;;;;;;;;;5095105;28;20071;-59
2021/05/01 08:17:09;;;;;;;32.08;26.25;;;;;;;;;;5077549;28;20035;-59
2021/05/01 08:19:37;;;;;;;28.45;24.20;;;;;;;;;;5095449;28;20075;-59
2021/05/01 08:22:06;;;;;;;32.85;25.40;;;;;;;;;;5093576;28;20057;-59
2021/05/01 08:24:32;;;;;;;30.73;25.58;;;;;;;;;;5095212;28;20378;-59
2021/05/01 08:27:05;;;;;;;33.83;24.42;;;;;;;;;;5095959;28;20031;-59
2021/05/01 08:29:31;;;;;;;28.77;23.65;;;;;;;;;;5093966;28;20028;-59
2021/05/01 08:32:00;;;;;;;33.53;26.85;;;;;;;;;;5094391;28;20055;-59
2021/05/01 08:34:29;;;;;;;28.60;23.50;;;;;;;;;;5095191;28;20020;-59
2021/05/01 08:37:06;;;;;;;26.90;22.23;;;;;;;;;;5085134;28;20330;-59
2021/05/01 08:39:38;;;;;;;29.85;22.55;;;;;;;;;;5094709;28;20385;-59
2021/05/01 08:42:10;;;;;;;25.58;22.83;;;;;;;;;;5093525;28;20028;-59
2021/05/01 08:44:36;;;;;;;28.52;24.85;;;;;;;;;;5093412;28;20024;-59
2021/05/01 08:47:06;;;;;;;27.23;22.05;;;;;;;;;;5093531;28;20081;-59
2021/05/01 08:49:35;;;;;;;28.55;22.15;;;;;;;;;;5095841;28;20020;-59
2021/05/01 08:52:01;;;;;;;27.55;21.98;;;;;;;;;;5094764;28;20040;-59
2021/05/01 08:54:35;;;;;;;26.20;22.45;;;;;;;;;;5094667;28;20127;-59
2021/05/01 08:57:02;;;;;;;24.00;19.27;;;;;;;;;;5095038;28;20042;-59
2021/05/01 08:59:31;;;;;;;25.45;22.52;;;;;;;;;;5095232;28;20047;-59
2021/05/01 09:02:00;;;;;;;25.20;20.75;;;;;;;;;;5094369;28;20115;-59
2021/05/01 09:04:44;;;;;;;23.90;20.10;;;;;;;;;;5095339;28;20016;-59
2021/05/01 09:07:10;;;;;;;22.60;19.40;;;;;;;;;;5094571;28;20109;-59
2021/05/01 09:09:43;;;;;;;25.95;21.25;;;;;;;;;;5093193;28;20031;-59
2021/05/01 09:12:12;;;;;;;24.95;20.70;;;;;;;;;;5093358;28;20039;-59
2021/05/01 09:14:38;;;;;;;27.60;21.85;;;;;;;;;;5094390;28;20035;-59
2021/05/01 09:17:12;;;;;;;26.77;22.55;;;;;;;;;;5094578;28;20035;-59
2021/05/01 09:19:41;;;;;;;23.27;19.38;;;;;;;;;;5092978;28;20377;-59
2021/05/01 09:22:07;;;;;;;24.05;20.42;;;;;;;;;;5075570;28;20039;-59
2021/05/01 09:24:36;;;;;;;22.17;17.90;;;;;;;;;;5093892;28;20020;-59
2021/05/01 09:27:04;;;;;;;24.90;20.75;;;;;;;;;;5094201;28;20116;-59
2021/05/01 09:29:35;;;;;;;22.48;20.05;;;;;;;;;;5094093;28;20102;-59
2021/05/01 09:32:01;;;;;;;23.63;21.17;;;;;;;;;;5092670;28;20051;-59
2021/05/01 09:34:43;;;;;;;23.65;19.70;;;;;;;;;;5094731;28;20058;-59
2021/05/01 09:37:10;;;;;;;22.98;19.75;;;;;;;;;;5092561;28;20355;-59
2021/05/01 09:39:47;;;;;;;25.27;20.23;;;;;;;;;;5093379;28;20098;-59
2021/05/01 09:42:17;;;;;;;22.13;18.10;;;;;;;;;;5094657;28;20452;-59
2021/05/01 09:44:46;;;;;;;21.55;18.92;;;;;;;;;;5093711;28;20465;-59
2021/05/01 09:47:19;;;;;;;21.40;18.80;;;;;;;;;;5093958;28;20024;-59
2021/05/01 09:49:48;;;;;;;22.40;17.70;;;;;;;;;;5092951;28;20028;-59
2021/05/01 09:52:15;;;;;;;22.67;19.33;;;;;;;;;;5092287;28;20048;-59
2021/05/01 09:54:43;;;;;;;23.33;18.60;;;;;;;;;;5094547;28;20075;-59
2021/05/01 09:57:19;;;;;;;21.60;19.27;;;;;;;;;;5093031;28;20020;-59
2021/05/01 09:59:59;;;;;;;20.08;17.98;;;;;;;;;;5092272;28;20057;-59
2021/05/01 10:02:33;;;;;;;21.05;18.73;;;;;;;;;;5093325;28;20032;-59
2021/05/01 10:05:04;;;;;;;28.13;19.05;;;;;;;;;;5093332;28;20024;-59
2021/05/01 10:07:30;;;;;;;;;;;;;;;;;;5093705;28;20030;-59
2021/05/01 10:09:59;;;;;;;21.70;18.63;;;;;;;;;;5094093;28;20257;-59
2021/05/01 10:12:37;;;;;;;24.63;18.42;;;;;;;;;;5093834;28;20028;-59
2021/05/01 10:15:13;;;;;;;22.05;19.08;;;;;;;;;;5094318;28;20055;-59
2021/05/01 10:17:43;;;;;;;22.60;18.67;;;;;;;;;;5092620;28;20416;-59
2021/05/01 10:20:15;;;;;;;23.58;18.65;;;;;;;;;;5092317;28;20127;-59
2021/05/01 10:22:45;;;;;;;18.50;16.52;;;;;;;;;;5092670;28;20068;-59
2021/05/01 10:25:11;;;;;;;20.33;16.65;;;;;;;;;;5092996;28;20391;-59
2021/05/01 10:27:55;;;;;;;24.65;19.33;;;;;;;;;;5092086;28;20028;-59
2021/05/01 10:30:36;;;;;;;24.13;19.58;;;;;;;;;;5092668;28;20043;-59
2021/05/01 10:36:01;;;;;;;25.08;19.42;;;;;;;;;;5097482;28;20036;-59
2021/05/01 10:38:28;;;;;;;19.05;17.02;;;;;;;;;;5095488;28;20028;-59
2021/05/01 10:41:01;;;;;;;22.20;19.88;;;;;;;;;;5096182;28;20016;-59
2021/05/01 10:43:31;;;;;;;21.45;17.88;;;;;;;;;;5097232;28;20035;-59
2021/05/01 10:46:12;;;;;;;21.55;19.30;;;;;;;;;;5095762;28;20126;-59
2021/05/01 10:48:40;;;;;;;23.83;19.05;;;;;;;;;;5098330;28;20027;-59
2021/05/01 10:51:11;;;;;;;24.77;18.77;;;;;;;;;;5096950;28;20024;-59
2021/05/01 10:53:40;;;;;;;23.65;19.60;;;;;;;;;;5095997;28;20031;-59
2021/05/01 10:56:07;;;;;;;21.20;18.85;;;;;;;;;;5097232;28;20363;-59
2021/05/01 10:58:35;;;;;;;26.55;19.50;;;;;;;;;;5079416;28;20028;-59
2021/05/01 11:01:01;;;;;;;20.83;18.25;;;;;;;;;;5095538;28;20342;-59
2021/05/01 11:03:28;;;;;;;22.92;19.75;;;;;;;;;;5097079;28;20039;-59
2021/05/01 11:06:07;;;;;;;24.63;20.45;;;;;;;;;;5078864;28;20032;-59
2021/05/01 11:08:50;;;;;;;20.80;18.30;;;;;;;;;;5095924;28;20028;-59
2021/05/01 11:11:16;;;;;;;19.38;17.33;;;;;;;;;;5096131;28;20342;-59
2021/05/01 11:13:43;;;;;;;27.42;20.02;;;;;;;;;;5096973;28;20020;-59
2021/05/01 11:16:10;;;;;;;22.35;18.88;;;;;;;;;;5096236;28;20452;-59
2021/05/01 11:18:38;;;;;;;23.38;20.70;;;;;;;;;;5095400;28;20047;-59
2021/05/01 11:21:05;;;;;;;28.95;21.42;;;;;;;;;;5097432;28;20104;-59
2021/05/01 11:23:35;;;;;;;23.20;18.90;;;;;;;;;;5096511;28;20032;-59
2021/05/01 11:26:01;;;;;;;23.13;20.67;;;;;;;;;;5096146;28;20036;-59
2021/05/01 11:28:28;;;;;;;23.15;20.50;;;;;;;;;;5095675;28;20108;-59
2021/05/01 11:30:55;;;;;;;26.23;21.13;;;;;;;;;;5096911;28;20073;-59
2021/05/01 11:33:22;;;;;;;24.45;19.98;;;;;;;;;;5095632;28;20036;-59
2021/05/01 11:35:51;;;;;;;29.13;20.27;;;;;;;;;;5094993;28;20386;-59
2021/05/01 11:38:24;;;;;;;23.95;19.70;;;;;;;;;;5095244;28;20381;-59
2021/05/01 11:40:51;;;;;;;23.45;20.38;;;;;;;;;;5095457;28;20473;-59
2021/05/01 11:43:18;;;;;;;27.50;22.30;;;;;;;;;;5096070;28;20016;-59
2021/05/01 11:45:52;;;;;;;25.48;20.67;;;;;;;;;;5096248;28;20073;-59
2021/05/01 11:48:41;;;;;;;25.58;19.98;;;;;;;;;;5096801;28;20086;-59
2021/05/01 11:51:08;;;;;;;21.85;19.20;;;;;;;;;;5089903;28;20032;-59
2021/05/01 11:53:48;;;;;;;28.27;22.17;;;;;;;;;;5096040;28;20092;-60
2021/05/01 11:56:23;;;;;;;25.30;21.33;;;;;;;;;;5095971;28;20067;-60
2021/05/01 11:58:49;;;;;;;25.67;21.38;;;;;;;;;;5094772;28;20024;-59
2021/05/01 12:01:17;;;;;;;22.75;20.35;;;;;;;;;;5095449;28;20151;-59
2021/05/01 12:03:54;;;;;;;27.60;20.60;;;;;;;;;;5094597;28;20115;-59
2021/05/01 12:06:32;;;;;;;23.27;20.75;;;;;;;;;;5078851;28;20123;-59
2021/05/01 12:09:08;;;;;;;26.27;20.20;;;;;;;;;;5095231;28;20115;-59
2021/05/01 12:11:35;;;;;;;22.08;19.70;;;;;;;;;;5096316;28;20043;-59
2021/05/01 12:14:07;;;;;;;22.58;18.42;;;;;;;;;;5095772;28;20032;-59
2021/05/01 12:16:33;;;;;;;22.38;19.58;;;;;;;;;;5095844;28;20027;-59
2021/05/01 12:18:59;;;;;;;21.42;19.13;;;;;;;;;;5096242;28;20024;-59
2021/05/01 12:21:28;;;;;;;25.02;22.15;;;;;;;;;;5095407;28;20474;-59
2021/05/01 12:23:56;;;;;;;22.90;20.58;;;;;;;;;;5095448;28;20020;-59
2021/05/01 12:26:35;;;;;;;22.90;19.73;;;;;;;;;;5095748;28;20559;-59
2021/05/01 12:29:23;;;;;;;22.88;20.30;;;;;;;;;;5094156;28;20028;-59
2021/05/01 12:31:58;;;;;;;22.33;19.63;;;;;;;;;;5096093;28;20028;-59
2021/05/01 12:34:44;;;;;;;21.55;19.35;;;;;;;;;;5094083;28;20024;-59
2021/05/01 12:37:11;;;;;;;24.75;21.23;;;;;;;;;;5094895;28;20028;-59
2021/05/01 12:39:38;;;;;;;23.55;20.58;;;;;;;;;;5095524;28;20496;-59
2021/05/01 12:42:18;;;;;;;22.00;19.65;;;;;;;;;;5094435;28;20050;-59
2021/05/01 12:44:47;;;;;;;24.55;21.27;;;;;;;;;;5094374;28;20446;-59
2021/05/01 12:47:13;;;;;;;26.98;21.60;;;;;;;;;;5093887;28;20019;-59
2021/05/01 12:49:39;;;;;;;22.52;20.20;;;;;;;;;;5093994;28;20027;-59
2021/05/01 12:52:07;;;;;;;22.73;20.02;;;;;;;;;;5094879;28;20035;-59
2021/05/01 12:54:35;;;;;;;21.98;19.52;;;;;;;;;;5093294;28;20443;-59
2021/05/01 12:57:02;;;;;;;24.42;20.05;;;;;;;;;;5092915;28;20032;-59
2021/05/01 12:59:29;;;;;;;22.42;20.15;;;;;;;;;;5095014;28;20077;-59
2021/05/01 13:01:55;;;;;;;27.58;20.90;;;;;;;;;;5094987;28;20111;-59
2021/05/01 13:04:28;;;;;;;25.73;20.50;;;;;;;;;;5094735;28;20052;-59
2021/05/01 13:06:54;;;;;;;24.30;20.25;;;;;;;;;;5093450;28;20123;-59
2021/05/01 13:09:21;;;;;;;21.70;19.48;;;;;;;;;;5094574;28;20070;-59
2021/05/01 13:12:06;;;;;;;24.05;21.30;;;;;;;;;;5094302;28;20115;-59
2021/05/01 13:15:05;;;;;;;22.50;20.10;;;;;;;;;;5093242;28;20056;-59
2021/05/01 13:17:34;;;;;;;23.77;20.55;;;;;;;;;;5093688;28;20369;-59
2021/05/01 13:20:03;;;;;;;21.80;19.35;;;;;;;;;;5093802;28;20473;-59
2021/05/01 13:22:30;;;;;;;25.30;19.92;;;;;;;;;;5094628;28;20074;-59
2021/05/01 13:25:16;;;;;;;22.38;19.52;;;;;;;;;;5092984;28;20023;-59
2021/05/01 13:27:49;;;;;;;25.23;20.90;;;;;;;;;;5094289;28;20043;-59
2021/05/01 13:30:16;;;;;;;20.25;18.23;;;;;;;;;;5093695;28;20038;-59
2021/05/01 13:32:43;;;;;;;20.70;18.65;;;;;;;;;;5093041;28;20453;-59
2021/05/01 13:35:12;;;;;;;21.00;18.92;;;;;;;;;;5093195;28;20339;-59
2021/05/01 13:37:38;;;;;;;25.60;20.77;;;;;;;;;;5093786;28;20028;-59
2021/05/01 13:40:11;;;;;;;27.45;21.40;;;;;;;;;;5075762;28;20114;-59
2021/05/01 13:42:40;;;;;;;23.77;21.20;;;;;;;;;;5094374;28;20110;-59
2021/05/01 13:45:07;;;;;;;24.20;21.70;;;;;;;;;;5092318;28;20024;-59
2021/05/01 13:47:34;;;;;;;21.60;19.42;;;;;;;;;;5094638;28;20020;-59
2021/05/01 13:50:00;;;;;;;25.65;19.90;;;;;;;;;;5094074;28;20028;-59
2021/05/01 13:52:27;;;;;;;25.30;20.48;;;;;;;;;;5092669;28;20028;-59
2021/05/01 13:54:53;;;;;;;25.20;21.48;;;;;;;;;;5092197;28;20048;-59
2021/05/01 13:57:27;;;;;;;28.02;21.60;;;;;;;;;;5094397;28;20446;-59
2021/05/01 14:00:01;;;;;;;24.00;21.50;;;;;;;;;;5093049;28;20357;-59
2021/05/01 14:02:45;;;;;;;26.00;22.33;;;;;;;;;;5093658;28;20032;-59
2021/05/01 14:05:12;;;;;;;26.10;23.17;;;;;;;;;;5093034;28;20024;-59
2021/05/01 14:07:39;;;;;;;30.90;22.77;;;;;;;;;;5093638;28;20028;-59
2021/05/01 14:10:06;;;;;;;25.45;22.70;;;;;;;;;;5093568;28;20028;-59
2021/05/01 14:12:32;;;;;;;28.80;23.00;;;;;;;;;;5093853;28;20039;-59
2021/05/01 14:14:58;;;;;;;25.35;22.63;;;;;;;;;;5092204;28;20469;-59
2021/05/01 14:17:30;;;;;;;27.00;23.10;;;;;;;;;;5092289;28;20024;-59
2021/05/01 14:19:58;;;;;;;26.40;22.58;;;;;;;;;;5092310;28;20096;-59
2021/05/01 14:22:24;;;;;;;25.33;21.55;;;;;;;;;;5092097;28;20043;-59
2021/05/01 14:24:51;;;;;;;30.52;25.17;;;;;;;;;;5093399;28;20032;-59
2021/05/01 14:27:20;;;;;;;28.70;23.48;;;;;;;;;;5093562;28;20437;-59
2021/05/01 14:29:57;;;;;;;24.92;22.25;;;;;;;;;;5093849;28;20509;-59
2021/05/01 14:32:26;;;;;;;26.92;22.30;;;;;;;;;;5091946;28;20028;-59
2021/05/01 14:34:56;;;;;;;25.98;23.15;;;;;;;;;;5092118;28;20541;-59
2021/05/01 14:37:23;;;;;;;26.90;23.08;;;;;;;;;;5093823;28;20345;-59